Time;durP1;ratioP1;P1;durP2;ratioP2;P2;SDS_P1;SDS_P2;PMS_P1;PMS_P2;Temp;Humidity;BMP_temperature;BMP_pressure;BME280_temperature;BME280_humidity;BME280_pressure;Samples;Min_cycle;Max_cycle;Signal;HPM_P1;HPM_P2
2024/04/03 00:00:39;;;;;;;3.55;1.15;;;;;;;8.25;55.50;96220.91;4963312;29;20053;-80
2024/04/03 00:03:05;;;;;;;1.50;0.88;;;;;;;8.21;55.28;96219.66;4963629;29;20051;-80
2024/04/03 00:05:32;;;;;;;2.53;1.17;;;;;;;8.20;55.62;96215.44;4964217;29;20105;-80
2024/04/03 00:07:57;;;;;;;3.28;1.08;;;;;;;8.20;55.49;96212.03;4961809;29;20047;-80
2024/04/03 00:10:24;;;;;;;5.28;1.27;;;;;;;8.20;55.43;96212.03;4961667;29;20074;-80
2024/04/03 00:12:50;;;;;;;2.17;0.90;;;;;;;8.20;55.42;96210.25;4961416;29;20047;-80
2024/04/03 00:15:17;;;;;;;6.10;1.20;;;;;;;8.24;55.78;96214.13;4961830;29;20045;-79
2024/04/03 00:17:44;;;;;;;2.53;1.08;;;;;;;8.28;55.56;96217.16;4962883;28;20039;-79
2024/04/03 00:20:11;;;;;;;1.83;0.98;;;;;;;8.31;55.49;96209.00;4964623;28;20027;-79
2024/04/03 00:22:36;;;;;;;1.92;1.17;;;;;;;8.32;55.45;96205.41;4964672;28;20041;-79
2024/04/03 00:25:04;;;;;;;0.77;0.60;;;;;;;8.37;55.42;96204.88;4963967;29;20051;-80
2024/04/03 00:27:29;;;;;;;2.13;0.93;;;;;;;8.40;55.53;96201.94;4961576;29;20135;-80
2024/04/03 00:29:56;;;;;;;3.35;0.93;;;;;;;8.43;55.28;96209.41;4961420;29;20516;-80
2024/04/03 00:32:22;;;;;;;0.90;0.60;;;;;;;8.44;55.23;96206.63;4961049;29;20055;-80
2024/04/03 00:34:52;;;;;;;4.22;1.10;;;;;;;8.48;55.46;96204.47;4960606;29;20099;-80
2024/04/03 00:37:18;;;;;;;2.33;0.88;;;;;;;8.49;55.12;96200.91;4960879;29;20074;-80
2024/04/03 00:39:45;;;;;;;0.50;0.50;;;;;;;8.47;55.22;96191.69;4961542;29;20051;-80
2024/04/03 00:42:11;;;;;;;3.15;0.98;;;;;;;8.41;55.10;96201.78;4960668;29;20047;-80
2024/04/03 00:44:39;;;;;;;4.10;0.80;;;;;;;8.37;55.42;96184.09;4960525;29;20070;-80
2024/04/03 00:47:05;;;;;;;4.65;1.15;;;;;;;8.34;55.61;96180.06;4960541;29;20055;-80
2024/04/03 00:49:32;;;;;;;2.35;1.48;;;;;;;8.30;55.44;96180.59;4975432;28;20051;-80
2024/04/03 00:51:59;;;;;;;2.50;0.90;;;;;;;8.27;55.38;96184.38;4959530;29;20127;-80
2024/04/03 00:54:26;;;;;;;2.53;0.60;;;;;;;8.27;55.39;96173.16;4960344;29;20051;-80
2024/04/03 00:56:52;;;;;;;2.60;1.13;;;;;;;8.23;55.54;96170.91;4959993;29;20051;-80
2024/04/03 00:59:19;;;;;;;3.40;1.35;;;;;;;8.21;55.59;96159.09;4959023;29;20055;-80
2024/04/03 01:01:45;;;;;;;4.90;1.05;;;;;;;8.21;55.55;96159.88;4960466;29;20051;-80
2024/04/03 01:04:11;;;;;;;3.45;0.80;;;;;;;8.21;55.48;96165.09;4959681;29;20115;-79
2024/04/03 01:06:37;;;;;;;4.60;0.98;;;;;;;8.23;55.55;96163.13;4960121;29;20041;-81
2024/04/03 01:09:05;;;;;;;1.77;1.00;;;;;;;8.23;56.50;96163.13;4959138;29;20074;-80
2024/04/03 01:11:31;;;;;;;2.45;1.17;;;;;;;8.26;55.79;96156.75;4958753;29;20055;-81
2024/04/03 01:13:58;;;;;;;3.72;1.00;;;;;;;8.23;55.60;96152.72;4958425;29;20054;-81
2024/04/03 01:16:23;;;;;;;2.33;0.80;;;;;;;8.18;55.75;96152.47;4958918;29;20499;-81
2024/04/03 01:18:50;;;;;;;1.77;0.90;;;;;;;8.14;55.67;96148.59;4959037;29;20055;-80
2024/04/03 01:21:16;;;;;;;3.97;1.00;;;;;;;8.11;55.74;96142.94;4959198;29;20061;-81
2024/04/03 01:23:42;;;;;;;2.22;0.85;;;;;;;8.10;55.58;96139.53;4963069;28;20043;-80
2024/04/03 01:26:09;;;;;;;2.63;1.15;;;;;;;8.09;55.24;96140.53;4963376;28;20062;-80
2024/04/03 01:28:36;;;;;;;3.97;1.10;;;;;;;8.11;55.42;96130.78;4963218;28;20037;-80
2024/04/03 01:31:02;;;;;;;1.80;1.05;;;;;;;8.15;55.37;96120.81;4962570;29;20052;-80
2024/04/03 01:33:29;;;;;;;2.05;0.80;;;;;;;8.18;55.44;96118.69;4962816;29;20045;-80
2024/04/03 01:35:54;;;;;;;4.32;1.55;;;;;;;8.18;55.05;96113.47;4962640;29;20057;-80
2024/04/03 01:38:21;;;;;;;1.90;0.70;;;;;;;8.17;55.03;96104.06;4962597;28;20039;-81
2024/04/03 01:40:47;;;;;;;1.90;0.75;;;;;;;8.18;55.12;96105.69;4963178;28;20039;-80
2024/04/03 01:43:15;;;;;;;0.70;0.55;;;;;;;8.20;55.04;96103.72;4962912;29;20043;-80
2024/04/03 01:45:41;;;;;;;1.10;0.80;;;;;;;8.21;55.01;96104.53;4962648;29;20031;-81
2024/04/03 01:48:07;;;;;;;2.00;0.80;;;;;;;8.20;54.79;96101.13;4960267;29;20078;-80
2024/04/03 01:50:36;;;;;;;1.33;0.65;;;;;;;8.20;55.16;96095.13;4959955;29;20050;-80
2024/04/03 01:53:03;;;;;;;2.45;0.90;;;;;;;8.20;55.30;96097.72;4958357;29;20055;-80
2024/04/03 01:55:29;;;;;;;2.25;0.80;;;;;;;8.18;55.26;96100.50;4958221;29;20065;-81
2024/04/03 01:57:55;;;;;;;1.23;0.90;;;;;;;8.19;55.34;96099.50;4958387;29;20051;-81
2024/04/03 02:00:22;;;;;;;4.40;1.00;;;;;;;8.21;54.92;96094.13;4958723;28;20090;-81
2024/04/03 02:02:49;;;;;;;2.67;1.50;;;;;;;8.20;55.00;96093.34;4958902;29;20047;-80
2024/04/03 02:05:15;;;;;;;1.40;0.80;;;;;;;8.19;54.80;96091.69;4957040;29;20059;-80
2024/04/03 02:07:42;;;;;;;1.33;0.60;;;;;;;8.18;54.97;96082.31;4956301;29;20051;-80
2024/04/03 02:10:07;;;;;;;1.33;0.80;;;;;;;8.18;54.96;96077.13;4956694;29;20055;-81
2024/04/03 02:12:34;;;;;;;4.80;0.95;;;;;;;8.14;55.16;96075.84;4956520;29;20107;-80
2024/04/03 02:15:00;;;;;;;2.28;0.80;;;;;;;8.12;55.17;96071.81;4955775;29;20042;-81
2024/04/03 02:17:28;;;;;;;4.15;0.70;;;;;;;8.11;55.39;96070.19;4956574;29;20107;-80
2024/04/03 02:19:54;;;;;;;1.98;0.93;;;;;;;8.10;55.10;96069.41;4958473;29;20047;-81
2024/04/03 02:22:20;;;;;;;1.75;0.65;;;;;;;8.09;55.20;96067.81;4957849;29;20059;-81
2024/04/03 02:24:46;;;;;;;1.92;0.73;;;;;;;8.10;55.29;96069.41;4957553;29;20058;-81
2024/04/03 02:27:13;;;;;;;4.57;0.60;;;;;;;8.10;55.15;96066.00;4957124;29;20055;-81
2024/04/03 02:29:39;;;;;;;2.05;0.55;;;;;;;8.12;55.55;96077.81;4958318;29;20059;-80
2024/04/03 02:32:05;;;;;;;1.77;0.70;;;;;;;8.14;55.54;96065.47;4957919;29;20057;-80
2024/04/03 02:34:33;;;;;;;2.30;0.70;;;;;;;8.15;55.51;96061.88;4958103;29;20055;-80
2024/04/03 02:36:59;;;;;;;1.42;0.60;;;;;;;8.19;55.30;96062.31;4957254;29;20063;-80
2024/04/03 02:39:26;;;;;;;0.93;0.60;;;;;;;8.20;55.37;96069.94;4957381;29;20066;-81
2024/04/03 02:41:51;;;;;;;2.22;0.82;;;;;;;8.20;55.42;96069.94;4957407;29;20058;-81
2024/04/03 02:44:18;;;;;;;2.63;0.77;;;;;;;8.21;55.51;96068.94;4957452;29;20078;-80
2024/04/03 02:46:44;;;;;;;1.77;0.50;;;;;;;8.24;55.73;96071.22;4956818;29;20051;-80
2024/04/03 02:49:13;;;;;;;4.67;0.90;;;;;;;8.24;55.41;96068.59;4976890;23;20062;-81
2024/04/03 02:51:40;;;;;;;2.40;0.73;;;;;;;8.24;55.53;96070.38;4941447;29;20451;-84
2024/04/03 02:54:07;;;;;;;2.20;0.80;;;;;;;8.26;55.77;96063.22;4939025;29;20110;-84
2024/04/03 02:56:32;;;;;;;2.40;0.80;;;;;;;8.25;55.78;96067.59;4941185;29;20078;-85
2024/04/03 02:58:59;;;;;;;1.13;0.65;;;;;;;8.25;55.71;96062.41;4939111;29;20517;-86
2024/04/03 03:01:25;;;;;;;1.52;0.93;;;;;;;8.24;55.66;96054.78;4941048;29;20527;-82
2024/04/03 03:03:51;;;;;;;1.25;0.80;;;;;;;8.25;55.50;96057.22;4939094;29;20110;-86
2024/04/03 03:06:17;;;;;;;1.75;0.90;;;;;;;8.24;55.78;96060.81;4940902;29;20055;-82
2024/04/03 03:08:45;;;;;;;2.45;0.70;;;;;;;8.24;55.66;96050.41;4940014;29;20058;-84
2024/04/03 03:11:10;;;;;;;1.95;0.77;;;;;;;8.25;55.75;96052.00;4941579;29;20055;-87
2024/04/03 03:13:37;;;;;;;1.98;0.65;;;;;;;8.26;55.82;96052.81;4945829;29;20558;-89
2024/04/03 03:16:03;;;;;;;1.15;0.50;;;;;;;8.25;55.68;96036.44;4944512;29;20055;-88
2024/04/03 03:18:32;;;;;;;3.70;0.98;;;;;;;8.29;55.78;96039.47;4947053;29;20337;-87
2024/04/03 03:20:58;;;;;;;1.40;0.65;;;;;;;8.32;55.76;96033.09;4946070;29;20062;-87
2024/04/03 03:23:26;;;;;;;2.28;0.70;;;;;;;8.31;55.49;96031.47;4947069;29;20056;-85
2024/04/03 03:25:53;;;;;;;2.28;0.73;;;;;;;8.28;55.71;96029.25;4945555;29;20074;-84
2024/04/03 03:28:20;;;;;;;1.30;0.50;;;;;;;8.27;55.95;96022.47;4945130;29;20550;-85
2024/04/03 03:30:47;;;;;;;3.47;0.88;;;;;;;8.26;55.75;96013.84;4944899;29;20547;-81
2024/04/03 03:33:14;;;;;;;1.73;0.65;;;;;;;8.24;55.66;96014.03;4944700;29;20055;-87
2024/04/03 03:35:40;;;;;;;1.02;0.50;;;;;;;8.25;55.83;96015.63;4947351;29;20051;-80
2024/04/03 03:38:06;;;;;;;0.98;0.50;;;;;;;8.25;55.78;96009.66;4943961;29;20558;-82
2024/04/03 03:40:37;;;;;;;2.00;0.80;;;;;;;8.28;55.65;96000.69;4945037;29;20428;-85
2024/04/03 03:43:05;;;;;;;1.42;0.50;;;;;;;8.29;55.58;96003.09;4943986;29;20156;-83
2024/04/03 03:45:31;;;;;;;1.63;1.02;;;;;;;8.29;55.69;95995.31;4944707;29;20427;-82
2024/04/03 03:47:57;;;;;;;1.38;0.57;;;;;;;8.31;55.47;95992.50;4962199;29;20057;-82
2024/04/03 03:53:08;;;;;;;2.20;0.73;;;;;;;8.32;55.87;95996.72;4942307;29;20059;-87
2024/04/03 03:55:35;;;;;;;1.48;0.88;;;;;;;8.32;55.88;95988.94;4945029;29;20063;-89
2024/04/03 03:58:04;;;;;;;2.67;1.50;;;;;;;8.28;55.68;95990.28;4942453;29;20051;-82
2024/04/03 04:00:31;;;;;;;4.13;1.80;;;;;;;8.23;55.92;95981.22;4944011;29;20059;-85
2024/04/03 04:02:57;;;;;;;3.92;2.50;;;;;;;8.19;55.92;95969.59;4942850;29;20051;-86
2024/04/03 04:05:24;;;;;;;4.75;2.20;;;;;;;8.14;56.08;95976.34;4942284;29;20066;-87
2024/04/03 04:07:50;;;;;;;4.70;2.35;;;;;;;8.07;56.54;95978.84;4941357;29;20535;-81
2024/04/03 04:10:17;;;;;;;4.70;2.75;;;;;;;8.07;56.64;95980.63;4944390;29;20138;-83
2024/04/03 04:12:42;;;;;;;4.22;2.55;;;;;;;8.04;56.48;95976.59;4941122;29;20060;-82
2024/04/03 04:15:10;;;;;;;6.30;2.50;;;;;;;8.04;56.39;95972.19;4926146;29;20064;-83
2024/04/03 04:17:37;;;;;;;9.13;3.70;;;;;;;8.08;56.45;95969.25;4927819;29;20052;-80
2024/04/03 04:20:07;;;;;;;3.67;2.60;;;;;;;8.08;56.41;95970.06;4925216;29;20056;-83
2024/04/03 04:22:33;;;;;;;6.35;3.20;;;;;;;8.09;56.59;95966.50;4926778;29;20064;-81
2024/04/03 04:25:00;;;;;;;5.90;3.00;;;;;;;8.11;56.91;95972.31;4924457;29;20079;-86
2024/04/03 04:27:27;;;;;;;2.97;2.28;;;;;;;8.13;56.54;95967.72;4927659;29;20685;-80
2024/04/03 04:29:53;;;;;;;3.20;2.20;;;;;;;8.15;56.09;95970.94;4945535;29;20059;-81
2024/04/03 04:32:21;;;;;;;4.80;2.10;;;;;;;8.17;56.28;95970.75;4960360;28;20125;-78
2024/04/03 04:34:46;;;;;;;2.53;1.52;;;;;;;8.20;56.10;95971.22;4964850;28;20411;-81
2024/04/03 04:37:13;;;;;;;1.70;1.25;;;;;;;8.27;56.30;95970.50;4961033;28;20057;-83
2024/04/03 04:39:39;;;;;;;4.57;1.90;;;;;;;8.34;56.79;95974.75;4941753;29;20052;-83
2024/04/03 04:42:08;;;;;;;1.02;0.82;;;;;;;8.39;56.09;95974.22;4938730;29;20069;-81
2024/04/03 04:44:34;;;;;;;1.27;0.80;;;;;;;8.43;55.81;95965.09;4944682;29;20051;-84
2024/04/03 04:47:00;;;;;;;1.02;0.75;;;;;;;8.49;56.15;95966.97;4928479;29;20074;-84
2024/04/03 04:49:27;;;;;;;3.38;1.50;;;;;;;8.53;55.41;95970.81;4923493;29;20052;-79
2024/04/03 04:51:54;;;;;;;2.20;0.98;;;;;;;8.57;55.48;95955.63;4922089;29;20067;-80
2024/04/03 04:54:20;;;;;;;1.73;0.65;;;;;;;8.58;55.57;95960.66;4926794;29;20048;-83
2024/04/03 04:56:47;;;;;;;2.92;0.70;;;;;;;8.61;55.58;95962.88;4927285;29;20098;-87
2024/04/03 04:59:13;;;;;;;1.92;0.88;;;;;;;8.62;55.56;95969.69;4926149;29;20052;-79
2024/04/03 05:01:41;;;;;;;1.50;0.50;;;;;;;8.65;55.40;95960.72;4949661;28;20039;-91
2024/04/03 05:04:09;;;;;;;1.50;0.82;;;;;;;8.65;55.91;95968.53;4956173;28;20028;-90
2024/04/03 05:06:38;;;;;;;0.65;0.63;;;;;;;8.66;55.61;95970.94;4958188;28;20052;-89
2024/04/03 05:09:06;;;;;;;1.58;1.00;;;;;;;8.66;55.30;95970.94;4943322;29;20038;-87
2024/04/03 05:11:33;;;;;;;2.05;0.90;;;;;;;8.65;55.19;95964.13;4961114;28;20031;-90
2024/04/03 05:14:05;;;;;;;2.95;0.90;;;;;;;8.64;54.96;95969.53;4942615;28;20040;-89
2024/04/03 05:16:33;;;;;;;3.17;1.80;;;;;;;8.62;55.19;95961.91;4948724;28;20052;-89
2024/04/03 05:19:00;;;;;;;2.35;1.10;;;;;;;8.63;55.43;95960.91;4940649;29;20036;-89
2024/04/03 05:21:29;;;;;;;3.00;1.60;;;;;;;8.65;55.37;95958.91;4941036;29;20337;-88
2024/04/03 05:24:01;;;;;;;1.35;1.08;;;;;;;8.66;54.85;95955.34;4939877;29;20044;-89
2024/04/03 05:26:28;;;;;;;2.97;1.10;;;;;;;8.68;55.26;95956.94;4939950;29;20068;-87
2024/04/03 05:28:54;;;;;;;1.63;1.17;;;;;;;8.72;55.44;95958.19;4935411;29;20048;-88
2024/04/03 05:31:23;;;;;;;6.00;2.13;;;;;;;8.75;54.94;95955.22;4928000;29;20409;-83
2024/04/03 05:33:50;;;;;;;1.10;1.00;;;;;;;8.78;54.47;95962.66;4924727;29;20052;-86
2024/04/03 05:36:17;;;;;;;2.78;1.08;;;;;;;8.78;54.51;95950.44;4929894;29;20051;-88
2024/04/03 05:38:42;;;;;;;2.47;0.95;;;;;;;8.80;54.26;95956.25;4928555;29;20055;-88
2024/04/03 05:41:11;;;;;;;2.08;0.93;;;;;;;8.80;54.23;95947.66;4942874;29;20503;-91
2024/04/03 05:43:37;;;;;;;5.70;1.13;;;;;;;8.83;54.71;95952.47;4946295;29;20055;-88
2024/04/03 05:46:03;;;;;;;1.58;1.20;;;;;;;8.89;54.90;95954.34;4943161;29;20094;-83
2024/04/03 05:48:29;;;;;;;2.50;1.00;;;;;;;8.97;56.53;95954.22;4944665;29;20055;-90
2024/04/03 05:51:00;;;;;;;4.32;1.42;;;;;;;9.06;57.05;95952.28;4940970;29;20093;-88
2024/04/03 05:53:26;;;;;;;7.57;2.00;;;;;;;9.13;55.87;95944.53;4942155;29;20064;-88
2024/04/03 05:55:54;;;;;;;3.50;1.95;;;;;;;9.16;54.68;95942.38;4925390;29;20048;-83
2024/04/03 05:58:33;;;;;;;5.43;1.80;;;;;;;9.24;57.95;95946.63;4924432;29;20048;-88
2024/04/03 06:01:01;;;;;;;3.05;1.60;;;;;;;9.30;55.77;95940.66;4925585;29;20116;-88
2024/04/03 06:03:27;;;;;;;8.43;1.95;;;;;;;9.37;55.29;95943.31;4942951;29;20052;-88
2024/04/03 06:05:55;;;;;;;2.78;1.23;;;;;;;9.39;54.96;95952.53;4929667;29;20055;-90
2024/04/03 06:08:21;;;;;;;1.60;0.98;;;;;;;9.40;53.94;95946.34;4936014;29;20516;-88
2024/04/03 06:10:48;;;;;;;4.03;1.25;;;;;;;9.42;53.55;95946.13;4942354;29;20051;-90
2024/04/03 06:13:14;;;;;;;3.95;1.40;;;;;;;9.46;53.43;95945.56;4941938;29;20456;-86
2024/04/03 06:15:42;;;;;;;1.77;1.10;;;;;;;9.52;53.78;95956.22;4945312;29;20055;-89
2024/04/03 06:18:08;;;;;;;2.28;1.00;;;;;;;9.56;53.11;95962.66;4927603;29;20056;-88
2024/04/03 06:20:36;;;;;;;3.08;2.13;;;;;;;9.60;53.03;95969.91;4930007;29;20425;-85
2024/04/03 06:23:02;;;;;;;3.33;2.35;;;;;;;9.57;52.89;95966.88;4926623;29;20052;-88
2024/04/03 06:25:29;;;;;;;5.28;2.70;;;;;;;9.47;52.77;95970.63;4930308;29;20048;-87
2024/04/03 06:27:55;;;;;;;3.33;2.13;;;;;;;9.46;53.62;95973.41;4925616;29;20056;-87
2024/04/03 06:30:21;;;;;;;5.95;2.85;;;;;;;9.45;53.29;95970.00;4930641;29;20225;-85
2024/04/03 06:32:49;;;;;;;7.90;3.70;;;;;;;9.43;53.43;95965.97;4947852;29;20056;-85
2024/04/03 06:35:22;;;;;;;5.47;3.95;;;;;;;9.42;53.81;95970.41;4945687;29;20052;-89
2024/04/03 06:37:48;;;;;;;8.70;3.38;;;;;;;9.44;53.43;95965.78;4947153;29;20056;-89
2024/04/03 06:40:17;;;;;;;6.70;3.17;;;;;;;9.46;53.66;95960.38;4929403;29;20087;-82
2024/04/03 06:42:43;;;;;;;6.50;3.08;;;;;;;9.49;53.79;95965.22;4928027;29;20052;-88
2024/04/03 06:45:10;;;;;;;4.60;2.75;;;;;;;9.57;53.21;95957.25;4927969;29;20059;-86
2024/04/03 06:47:35;;;;;;;4.68;2.97;;;;;;;9.64;53.36;95965.09;4943873;29;20051;-86
2024/04/03 06:50:04;;;;;;;7.45;3.10;;;;;;;9.69;53.57;95962.75;4942334;29;20068;-80
2024/04/03 06:52:30;;;;;;;6.30;4.40;;;;;;;9.74;53.64;95968.16;4944226;29;20063;-89
2024/04/03 06:54:57;;;;;;;8.27;5.07;;;;;;;9.79;53.64;95970.19;4930120;29;20056;-84
2024/04/03 06:57:23;;;;;;;5.75;3.88;;;;;;;9.81;53.27;95957.78;4934125;29;20056;-87
2024/04/03 06:59:50;;;;;;;5.68;3.35;;;;;;;9.85;52.96;95965.03;4927785;29;20059;-82
2024/04/03 07:02:15;;;;;;;5.80;3.67;;;;;;;9.87;53.01;95965.63;4938728;29;20060;-81
2024/04/03 07:04:42;;;;;;;5.07;3.17;;;;;;;9.93;52.78;95960.66;4924203;29;20055;-81
2024/04/03 07:07:10;;;;;;;5.75;3.03;;;;;;;9.98;52.56;95964.28;4924109;29;20052;-81
2024/04/03 07:09:37;;;;;;;5.95;3.03;;;;;;;10.01;52.28;95970.91;4926938;29;20063;-85
2024/04/03 07:12:04;;;;;;;6.93;3.10;;;;;;;10.02;52.24;95980.34;4942668;29;20055;-82
2024/04/03 07:14:31;;;;;;;3.22;2.10;;;;;;;10.05;52.38;95979.94;4927190;29;20517;-86
2024/04/03 07:16:57;;;;;;;3.20;2.65;;;;;;;10.06;52.34;95984.19;4940858;29;20051;-86
2024/04/03 07:19:24;;;;;;;4.20;2.92;;;;;;;10.05;52.27;95978.16;4948190;29;20072;-88
2024/04/03 07:21:51;;;;;;;5.97;2.85;;;;;;;10.06;52.31;95989.41;4937318;29;20048;-86
2024/04/03 07:24:19;;;;;;;5.40;2.47;;;;;;;10.08;52.18;95996.03;4929851;29;20059;-84
2024/04/03 07:26:45;;;;;;;5.85;2.05;;;;;;;10.13;52.26;95992.84;4930697;29;20044;-86
2024/04/03 07:29:14;;;;;;;2.28;1.90;;;;;;;10.19;52.28;95999.88;4926664;29;20056;-81
2024/04/03 07:31:39;;;;;;;5.55;1.63;;;;;;;10.24;51.57;96004.50;4939512;29;20467;-80
2024/04/03 07:34:06;;;;;;;4.90;3.00;;;;;;;10.30;51.94;96009.78;4946000;29;20059;-87
2024/04/03 07:36:34;;;;;;;4.95;2.30;;;;;;;10.38;51.83;96010.59;4944011;29;20518;-88
2024/04/03 07:39:00;;;;;;;6.85;3.28;;;;;;;10.43;52.00;96016.03;4945531;29;20147;-86
2024/04/03 07:41:30;;;;;;;7.15;3.05;;;;;;;10.48;52.64;96017.06;4931090;29;20060;-84
2024/04/03 07:43:57;;;;;;;4.32;2.13;;;;;;;10.53;52.50;96021.69;4928724;29;20516;-82
2024/04/03 07:46:23;;;;;;;5.72;1.15;;;;;;;10.60;51.83;96012.06;4937355;29;20047;-85
2024/04/03 07:48:50;;;;;;;3.80;0.88;;;;;;;10.65;52.27;96014.91;4945993;29;20110;-81
2024/04/03 07:51:17;;;;;;;1.65;0.40;;;;;;;10.68;53.06;96014.50;4938040;29;20055;-83
2024/04/03 07:53:44;;;;;;;2.03;0.60;;;;;;;10.73;52.86;96019.13;4944820;29;20056;-84
2024/04/03 07:56:11;;;;;;;1.63;0.80;;;;;;;10.79;53.57;96028.00;4943866;29;20107;-81
2024/04/03 07:58:39;;;;;;;1.05;0.45;;;;;;;10.82;54.45;96036.25;4945581;29;20173;-83
2024/04/03 08:01:05;;;;;;;1.38;0.52;;;;;;;10.87;54.91;96040.88;4937323;29;20055;-85
2024/04/03 08:03:31;;;;;;;1.55;0.85;;;;;;;10.92;53.72;96046.28;4928460;29;20056;-86
2024/04/03 08:05:57;;;;;;;0.90;0.50;;;;;;;10.95;54.42;96053.72;4932454;29;20056;-86
2024/04/03 08:08:28;;;;;;;1.50;0.60;;;;;;;11.00;54.56;96053.13;4932914;29;20103;-88
2024/04/03 08:10:58;;;;;;;1.70;0.50;;;;;;;11.00;53.75;96056.56;4935374;29;20071;-84
2024/04/03 08:13:25;;;;;;;4.93;0.80;;;;;;;11.00;54.75;96067.00;4940768;29;20048;-83
2024/04/03 08:15:59;;;;;;;1.35;0.77;;;;;;;11.04;55.22;96072.59;4926534;29;20470;-81
2024/04/03 08:18:26;;;;;;;1.48;0.40;;;;;;;11.05;54.08;96075.03;4926132;29;20048;-83
2024/04/03 08:20:58;;;;;;;2.30;0.70;;;;;;;11.06;54.16;96076.66;4941257;29;20055;-89
2024/04/03 08:23:25;;;;;;;1.45;0.60;;;;;;;11.06;54.35;96075.81;4949677;29;20043;-89
2024/04/03 08:25:50;;;;;;;4.15;0.85;;;;;;;11.06;54.75;96081.03;4938307;29;20054;-87
2024/04/03 08:28:17;;;;;;;2.28;0.90;;;;;;;11.06;54.67;96087.09;4943825;29;20051;-85
2024/04/03 08:30:43;;;;;;;1.27;0.65;;;;;;;11.03;54.85;96082.25;4939494;29;20048;-84
2024/04/03 08:33:11;;;;;;;2.20;0.50;;;;;;;11.01;54.89;96093.88;4947073;29;20067;-83
2024/04/03 08:35:37;;;;;;;1.63;0.77;;;;;;;11.01;55.39;96089.47;4941427;29;20059;-87
2024/04/03 08:38:04;;;;;;;2.92;0.80;;;;;;;11.03;56.01;96089.28;4940540;29;20055;-82
2024/04/03 08:40:30;;;;;;;0.80;0.55;;;;;;;11.03;56.32;96095.28;4927533;29;20105;-81
2024/04/03 08:42:56;;;;;;;5.18;1.10;;;;;;;11.06;57.24;96091.47;4926397;29;20073;-80
2024/04/03 08:45:26;;;;;;;1.75;0.80;;;;;;;11.09;56.30;96085.88;4926426;29;20060;-81
2024/04/03 08:47:55;;;;;;;3.03;0.55;;;;;;;11.10;57.21;96077.84;4934844;29;20509;-82
2024/04/03 11:11:52;;;;;;;1.40;0.80;;;;;;;15.65;45.20;95935.34;5432344;23;20193;-76
2024/04/03 14:41:23;;;;;;;0.52;0.30;;;;;;;13.23;61.04;96018.22;5170943;23;20052;-74
2024/04/03 14:43:49;;;;;;;0.40;0.25;;;;;;;13.20;61.32;96025.50;4933980;29;20056;-74
2024/04/03 14:46:16;;;;;;;0.55;0.30;;;;;;;13.20;61.40;96019.47;4925153;29;20063;-74
2024/04/03 14:48:41;;;;;;;1.38;0.45;;;;;;;13.20;61.64;96028.09;4932455;29;20063;-74
2024/04/03 14:51:08;;;;;;;0.20;0.20;;;;;;;13.20;61.73;96029.94;4926625;29;20087;-74
2024/04/03 14:53:34;;;;;;;0.35;0.35;;;;;;;13.19;62.14;96029.13;4917143;29;20051;-76
2024/04/03 14:56:01;;;;;;;1.23;0.70;;;;;;;13.15;62.14;96040.25;4915639;29;20059;-75
2024/04/03 14:58:29;;;;;;;0.20;0.15;;;;;;;13.08;62.47;96040.28;4936667;23;20060;-80
2024/04/03 15:00:55;;;;;;;0.40;0.38;;;;;;;13.03;62.59;96039.31;4928294;29;20431;-81
2024/04/03 15:03:21;;;;;;;0.93;0.40;;;;;;;12.99;63.14;96044.19;4923865;29;20062;-79
2024/04/03 15:05:49;;;;;;;1.30;0.40;;;;;;;12.96;63.49;96042.75;4922399;29;20516;-79
2024/04/03 15:08:19;;;;;;;1.85;0.47;;;;;;;12.92;63.92;96049.47;4919577;29;20056;-79
2024/04/03 15:10:50;;;;;;;0.10;0.10;;;;;;;12.89;63.62;96044.63;4911463;29;20075;-81
2024/04/03 15:13:17;;;;;;;0.25;0.15;;;;;;;12.81;63.90;96031.78;4918277;29;20338;-81
2024/04/03 15:15:46;;;;;;;0.40;0.22;;;;;;;12.80;64.49;96045.09;4906398;29;20059;-80
2024/04/03 15:18:12;;;;;;;2.50;0.50;;;;;;;12.77;64.57;96041.88;4919244;29;20048;-80
2024/04/03 15:20:39;;;;;;;2.95;0.80;;;;;;;12.77;64.86;96041.88;4919195;29;20056;-81
2024/04/03 15:23:06;;;;;;;0.98;0.15;;;;;;;12.74;65.06;96036.25;4914546;29;20060;-81
2024/04/03 15:25:34;;;;;;;2.95;0.68;;;;;;;12.68;65.32;96042.31;4918105;29;20108;-79
2024/04/03 15:28:00;;;;;;;0.30;0.30;;;;;;;12.64;65.43;96048.97;4909225;29;20056;-81
2024/04/03 15:30:27;;;;;;;0.38;0.30;;;;;;;12.65;65.74;96054.00;4915511;29;20057;-81
2024/04/03 15:32:54;;;;;;;1.50;0.30;;;;;;;12.65;65.63;96050.59;4901474;29;20063;-81
2024/04/03 15:35:22;;;;;;;1.00;0.40;;;;;;;12.63;65.71;96048.16;4912823;29;20454;-80
2024/04/03 15:37:48;;;;;;;0.40;0.38;;;;;;;12.62;65.93;96043.97;4911034;29;20067;-80
2024/04/03 15:40:16;;;;;;;1.23;0.30;;;;;;;12.61;66.39;96044.94;4918656;29;20048;-80
2024/04/03 15:42:43;;;;;;;0.52;0.40;;;;;;;12.57;66.39;96041.13;4919355;29;20101;-80
2024/04/03 15:45:10;;;;;;;0.93;0.38;;;;;;;12.55;66.84;96048.41;4919596;29;20056;-80
2024/04/03 15:47:35;;;;;;;0.90;0.38;;;;;;;12.54;66.90;96046.81;4929758;29;20051;-80
2024/04/03 15:50:04;;;;;;;0.88;0.40;;;;;;;12.51;67.47;96053.25;4918230;29;20092;-79
2024/04/03 15:52:34;;;;;;;1.00;0.60;;;;;;;12.48;67.53;96052.84;4917501;29;20116;-81
2024/04/03 15:55:01;;;;;;;1.17;0.70;;;;;;;12.42;67.45;96046.66;4913172;29;20070;-81
2024/04/03 15:57:27;;;;;;;2.65;0.60;;;;;;;12.38;67.44;96055.13;4906580;29;20048;-82
2024/04/03 15:59:54;;;;;;;1.55;1.00;;;;;;;12.36;67.50;96060.56;4892865;29;20398;-81
2024/04/03 16:02:21;;;;;;;1.40;0.60;;;;;;;12.34;67.59;96041.66;4916963;29;20429;-81
2024/04/03 16:04:47;;;;;;;0.50;0.43;;;;;;;12.36;67.52;96057.94;4911743;29;20063;-81
2024/04/03 16:07:15;;;;;;;1.58;0.57;;;;;;;12.32;67.88;96060.16;4918006;29;20112;-82
2024/04/03 16:09:42;;;;;;;1.10;0.52;;;;;;;12.32;68.15;96057.53;4916951;29;20044;-80
2024/04/03 16:12:10;;;;;;;1.13;0.80;;;;;;;12.32;67.80;96075.84;4926852;29;20508;-81
2024/04/03 16:14:36;;;;;;;1.48;0.55;;;;;;;12.31;67.62;96060.34;4917235;29;20103;-81
2024/04/03 16:17:02;;;;;;;1.17;0.50;;;;;;;12.28;67.57;96066.00;4906038;29;20536;-80
2024/04/03 16:19:29;;;;;;;1.27;0.60;;;;;;;12.25;68.22;96064.59;4900509;29;20406;-82
2024/04/03 16:21:56;;;;;;;1.23;0.50;;;;;;;12.25;68.19;96064.59;4907881;29;20115;-82
2024/04/03 16:24:24;;;;;;;0.50;0.25;;;;;;;12.26;68.21;96071.44;4920069;29;20055;-82
2024/04/03 16:26:53;;;;;;;0.55;0.30;;;;;;;12.25;67.82;96069.03;4903311;29;20071;-82
2024/04/03 16:29:20;;;;;;;0.60;0.45;;;;;;;12.23;68.01;96064.00;4911114;29;20052;-81
2024/04/03 16:31:45;;;;;;;0.75;0.68;;;;;;;12.25;68.90;96056.75;4894946;29;20421;-80
2024/04/03 16:34:12;;;;;;;1.15;0.70;;;;;;;12.25;68.78;96062.00;4904019;29;20064;-81
2024/04/03 16:36:39;;;;;;;0.50;0.50;;;;;;;12.23;68.23;96056.16;4920600;29;20084;-81
2024/04/03 16:39:08;;;;;;;1.80;0.35;;;;;;;12.22;68.41;96058.97;4902858;29;20055;-79
2024/04/03 16:41:35;;;;;;;1.60;0.50;;;;;;;12.22;68.89;96057.16;4912970;29;20111;-80
2024/04/03 16:44:02;;;;;;;0.80;0.50;;;;;;;12.21;68.25;96063.41;4897617;29;20053;-80
2024/04/03 16:46:28;;;;;;;1.88;0.50;;;;;;;12.20;68.24;96066.22;4912778;29;20059;-80
2024/04/03 16:48:55;;;;;;;1.77;0.70;;;;;;;12.19;68.42;96067.22;4903911;29;20049;-82
2024/04/03 16:51:26;;;;;;;0.80;0.52;;;;;;;12.15;69.28;96065.00;4927752;29;20076;-82
2024/04/03 16:53:53;;;;;;;0.77;0.65;;;;;;;12.14;68.95;96068.66;4897963;29;20064;-81
2024/04/03 16:56:18;;;;;;;0.98;0.47;;;;;;;12.10;68.50;96071.88;4905963;29;20056;-79
2024/04/03 16:58:46;;;;;;;0.50;0.38;;;;;;;12.07;68.44;96069.66;4907319;29;20405;-81
2024/04/03 17:01:12;;;;;;;1.90;0.60;;;;;;;12.05;69.58;96071.69;4912055;29;20045;-81
2024/04/03 17:03:39;;;;;;;2.45;1.75;;;;;;;12.08;69.46;96074.69;4901013;29;20071;-81
2024/04/03 17:06:06;;;;;;;2.72;1.80;;;;;;;12.09;69.22;96089.38;4908229;29;20052;-81
2024/04/03 17:08:36;;;;;;;2.40;1.58;;;;;;;12.11;69.23;96073.47;4934281;29;20056;-81
2024/04/03 17:11:02;;;;;;;1.80;0.93;;;;;;;12.11;68.82;96083.94;4893322;29;20397;-81
2024/04/03 17:13:28;;;;;;;0.98;0.80;;;;;;;12.10;68.57;96082.34;4898370;29;20059;-81
2024/04/03 17:15:55;;;;;;;2.50;0.70;;;;;;;12.10;69.22;96095.41;4903046;29;20082;-81
2024/04/03 17:18:23;;;;;;;2.20;0.65;;;;;;;12.10;69.13;96103.25;4906827;29;20056;-82
2024/04/03 17:20:49;;;;;;;1.75;0.73;;;;;;;12.08;69.39;96105.25;4891065;29;20045;-81
2024/04/03 17:23:18;;;;;;;1.45;0.70;;;;;;;12.09;69.53;96117.31;4898967;29;20149;-82
2024/04/03 17:25:44;;;;;;;1.00;0.50;;;;;;;12.09;69.36;96112.09;4900089;29;20067;-81
2024/04/03 17:28:12;;;;;;;0.40;0.30;;;;;;;12.09;69.10;96123.38;4898014;29;20049;-82